createdAt,value
2019-01-03T00:02:51.723Z,71.90
2019-01-03T00:08:13.133Z,71.60
2019-01-03T00:13:28.352Z,71.30
2019-01-03T00:18:37.182Z,71.50
2019-01-03T00:23:46.293Z,72.00
2019-01-03T00:29:06.093Z,73.30
2019-01-03T00:34:09.249Z,74.80
2019-01-03T00:39:21.520Z,75.40
2019-01-03T00:44:41.070Z,74.40
2019-01-03T00:49:47.152Z,74.10
2019-01-03T00:54:52.915Z,73.40
2019-01-03T00:59:56.068Z,73.40
2019-01-03T01:05:11.381Z,74.20
2019-01-03T01:10:14.541Z,76.60
2019-01-03T01:15:29.946Z,76.80
2019-01-03T01:20:45.001Z,79.10
2019-01-03T01:25:57.010Z,78.90
2019-01-03T01:31:16.654Z,78.60
2019-01-03T01:36:36.586Z,79.60
2019-01-03T01:41:48.880Z,78.80
2019-01-03T01:46:54.917Z,79.50
2019-01-03T01:57:28.164Z,80.20
2019-01-03T02:02:37.136Z,79.80
2019-01-03T02:07:42.929Z,78.90
2019-01-03T02:12:48.842Z,77.80
2019-01-03T02:18:00.887Z,78.00
2019-01-03T02:23:06.663Z,76.80
2019-01-03T02:28:21.809Z,76.30
2019-01-03T02:33:41.533Z,74.80
2019-01-03T02:39:01.490Z,75.80
2019-01-03T02:44:07.243Z,75.50
2019-01-03T02:49:10.375Z,75.80
2019-01-03T02:54:16.435Z,75.90
2019-01-03T02:59:25.795Z,76.50
2019-01-03T03:04:44.267Z,77.60
2019-01-03T03:09:50.226Z,77.20
2019-01-03T03:15:05.623Z,77.60
2019-01-03T03:20:08.888Z,76.70
2019-01-03T03:25:20.996Z,76.50
2019-01-03T03:30:24.165Z,76.80
2019-01-03T03:35:27.301Z,76.80
2019-01-03T03:40:49.151Z,77.10
2019-01-03T03:45:55.159Z,76.10
2019-01-03T03:51:07.987Z,76.50
2019-01-03T03:56:11.118Z,77.40
2019-01-03T04:01:30.830Z,76.90
2019-01-03T04:06:40.045Z,77.70
2019-01-03T04:11:55.435Z,78.90
2019-01-03T04:17:15.247Z,79.40
2019-01-03T04:22:21.052Z,79.10
2019-01-03T04:27:39.141Z,80.50
2019-01-03T04:32:45.166Z,81.50
2019-01-03T04:37:57.197Z,81.70
2019-01-03T04:43:00.339Z,82.00
2019-01-03T04:48:03.476Z,81.50
2019-01-03T04:53:15.802Z,80.90
2019-01-03T04:58:33.945Z,80.60
2019-01-03T05:03:48.830Z,80.70
2019-01-03T05:08:54.584Z,82.20
2019-01-03T05:14:14.583Z,82.30
2019-01-03T05:19:32.729Z,81.40
2019-01-03T05:24:41.718Z,81.20
2019-01-03T05:29:53.752Z,81.90
2019-01-03T05:34:59.554Z,82.70
2019-01-03T05:40:21.147Z,84.60
2019-01-03T05:45:30.202Z,85.10
2019-01-03T05:50:42.000Z,86.10
2019-01-03T05:56:01.691Z,86.30
2019-01-03T06:01:04.868Z,87.70
2019-01-03T06:06:24.532Z,85.10
2019-01-03T06:11:39.819Z,84.00
2019-01-03T06:16:48.789Z,85.50
2019-01-03T06:22:01.119Z,86.90
2019-01-03T06:27:13.464Z,87.20
2019-01-03T06:32:22.256Z,88.50
2019-01-03T06:37:37.555Z,87.50
2019-01-03T06:42:57.506Z,87.80
2019-01-03T06:48:06.703Z,86.80
2019-01-03T06:53:26.395Z,84.40
2019-01-03T06:58:46.271Z,84.70
2019-01-03T07:03:58.296Z,85.40
2019-01-03T07:09:04.055Z,86.00
2019-01-03T07:14:23.861Z,87.40
2019-01-03T07:19:41.986Z,87.00
2019-01-03T07:24:45.126Z,87.00
2019-01-03T07:29:54.176Z,87.50
2019-01-03T07:35:13.896Z,92.00
2019-01-03T07:40:29.033Z,87.60
2019-01-03T07:45:44.153Z,86.90
2019-01-03T07:51:04.135Z,85.80
2019-01-03T07:56:24.068Z,86.10
2019-01-03T08:01:30.244Z,88.00
2019-01-03T08:06:36.272Z,88.00
2019-01-03T08:11:45.062Z,88.60
2019-01-03T08:17:03.136Z,89.00
2019-01-03T08:22:22.833Z,88.40
2019-01-03T08:27:28.618Z,87.50
2019-01-03T08:32:34.633Z,87.40
2019-01-03T08:37:52.753Z,87.50
2019-01-03T08:42:55.896Z,88.10
2019-01-03T08:47:59.032Z,87.70
2019-01-03T08:53:18.730Z,87.90
2019-01-03T08:58:24.507Z,88.30
2019-01-03T09:03:27.736Z,87.80
2019-01-03T09:08:43.113Z,84.20
2019-01-03T09:14:02.728Z,84.30
2019-01-03T09:19:08.548Z,86.50
2019-01-03T09:24:17.893Z,86.70
2019-01-03T09:29:36.232Z,86.70
2019-01-03T09:34:39.386Z,87.10
2019-01-03T09:39:51.191Z,86.70
2019-01-03T09:44:52.441Z,87.30
2019-01-03T09:49:53.679Z,87.40
2019-01-03T09:54:54.920Z,87.40
2019-01-03T09:59:56.155Z,88.10
2019-01-03T10:04:57.906Z,87.30
2019-01-03T10:09:59.144Z,87.80
2019-01-03T10:15:00.432Z,87.20
2019-01-03T10:20:03.931Z,87.70
2019-01-03T10:25:05.291Z,87.10
2019-01-03T10:30:06.951Z,87.30
2019-01-03T10:35:08.195Z,87.50
2019-01-03T10:40:09.444Z,87.90
2019-01-03T10:45:10.680Z,88.00
2019-01-03T10:50:11.917Z,87.90
2019-01-03T10:55:13.265Z,87.70
2019-01-03T11:00:14.592Z,87.50
2019-01-03T11:05:15.820Z,87.50
2019-01-03T11:10:17.079Z,87.80
2019-01-03T11:15:18.325Z,87.60
2019-01-03T11:20:19.564Z,88.00
2019-01-03T11:25:20.934Z,87.20
2019-01-03T11:30:22.186Z,86.60
2019-01-03T11:35:23.422Z,86.60
2019-01-03T11:40:24.678Z,85.90
2019-01-03T11:45:25.932Z,84.60
2019-01-03T11:50:27.179Z,86.20
2019-01-03T11:55:28.435Z,85.10
2019-01-03T12:00:29.674Z,84.20
2019-01-03T12:05:30.937Z,85.20
2019-01-03T12:10:32.172Z,86.40
2019-01-03T12:15:33.422Z,85.70
2019-01-03T12:20:34.668Z,88.10
2019-01-03T12:25:35.907Z,88.60
2019-01-03T12:30:37.153Z,88.20
2019-01-03T12:35:38.439Z,86.50
2019-01-03T12:40:39.684Z,85.20
2019-01-03T12:45:40.976Z,83.70
2019-01-03T12:50:42.217Z,82.20
2019-01-03T12:55:43.470Z,82.60
2019-01-03T13:00:44.819Z,83.00
2019-01-03T13:05:46.072Z,82.20
2019-01-03T13:10:47.364Z,82.50
2019-01-03T13:15:48.622Z,81.10
2019-01-03T13:20:49.876Z,81.90
2019-01-03T13:25:51.113Z,81.20
2019-01-03T13:30:52.361Z,81.30
2019-01-03T13:35:53.636Z,80.30
2019-01-03T13:40:54.890Z,82.10
2019-01-03T13:45:56.169Z,81.40
2019-01-03T13:50:57.421Z,81.00
2019-01-03T13:55:58.676Z,82.00
2019-01-03T14:00:59.935Z,82.30
2019-01-03T14:06:01.288Z,81.90
2019-01-03T14:11:02.655Z,80.50
2019-01-03T14:16:04.025Z,79.70
2019-01-03T14:21:05.371Z,80.60
2019-01-03T14:26:06.633Z,80.50
2019-01-03T14:31:07.885Z,81.10
2019-01-03T14:36:10.099Z,81.20
2019-01-03T14:41:11.362Z,81.60
2019-01-03T14:46:12.709Z,80.10
2019-01-03T14:51:13.946Z,81.10
2019-01-03T14:56:15.193Z,81.80
2019-01-03T15:01:16.430Z,83.40
2019-01-03T15:06:17.657Z,83.60
2019-01-03T15:11:18.911Z,84.80
2019-01-03T15:16:20.160Z,89.30
2019-01-03T15:21:21.504Z,96.30
2019-01-03T15:26:22.796Z,97.20
2019-01-03T15:31:24.025Z,97.50
2019-01-03T15:36:25.284Z,97.70
2019-01-03T15:41:26.560Z,97.90
2019-01-03T15:46:27.814Z,98.10
2019-01-03T15:51:29.183Z,99.10
2019-01-03T15:56:30.449Z,98.20
2019-01-03T16:01:31.691Z,98.20
2019-01-03T16:06:33.005Z,98.00
2019-01-03T16:11:34.338Z,97.80
2019-01-03T16:16:35.684Z,97.70
2019-01-03T16:21:37.029Z,97.50
2019-01-03T16:26:38.362Z,96.70
2019-01-03T16:31:39.713Z,96.80
2019-01-03T16:36:41.084Z,96.70
2019-01-03T16:41:42.414Z,97.00
2019-01-03T16:46:43.860Z,96.60
2019-01-03T16:51:45.316Z,96.60
2019-01-03T16:56:46.669Z,96.30
2019-01-03T17:01:48.021Z,95.90
2019-01-03T17:06:49.343Z,96.10
2019-01-03T17:11:50.677Z,95.70
2019-01-03T17:16:51.975Z,95.90
2019-01-03T17:21:53.307Z,95.70
2019-01-03T17:26:54.746Z,95.00
2019-01-03T17:31:56.128Z,96.40
2019-01-03T17:36:57.468Z,96.70
2019-01-03T17:41:58.903Z,96.50
2019-01-03T17:47:00.414Z,96.40
2019-01-03T17:52:01.876Z,96.70
2019-01-03T17:57:03.135Z,97.00
2019-01-03T18:02:05.492Z,97.30
2019-01-03T18:07:06.756Z,97.20
2019-01-03T18:12:08.031Z,97.40
2019-01-03T18:17:09.297Z,97.60
2019-01-03T18:22:10.594Z,97.70
2019-01-03T18:27:11.868Z,97.30
2019-01-03T18:32:13.233Z,97.20
2019-01-03T18:37:14.491Z,96.90
2019-01-03T18:42:15.721Z,96.90
2019-01-03T18:47:16.983Z,96.70
2019-01-03T18:52:18.259Z,96.70
2019-01-03T18:57:19.487Z,96.80
2019-01-03T19:02:20.770Z,96.80
2019-01-03T19:07:22.011Z,96.80
2019-01-03T19:12:23.252Z,96.80
2019-01-03T19:17:24.510Z,97.00
2019-01-03T19:22:25.862Z,96.80
2019-01-03T19:27:27.118Z,96.90
2019-01-03T19:32:28.413Z,96.70
2019-01-03T19:37:29.659Z,96.90
2019-01-03T19:42:30.955Z,97.60
2019-01-03T19:47:32.306Z,96.80
2019-01-03T19:52:33.557Z,97.00
2019-01-03T19:57:34.813Z,96.90
2019-01-03T20:02:36.172Z,96.80
2019-01-03T20:07:38.370Z,96.80
2019-01-03T20:12:40.019Z,97.10
2019-01-03T20:17:41.501Z,97.00
2019-01-03T20:22:42.764Z,97.10
2019-01-03T20:27:44.071Z,97.20
2019-01-03T20:32:45.476Z,97.30
2019-01-03T20:37:46.749Z,97.50
2019-01-03T20:42:48.028Z,97.50
2019-01-03T20:47:49.416Z,97.50
2019-01-03T20:52:50.788Z,97.50
2019-01-03T20:57:52.137Z,97.60
2019-01-03T21:02:53.461Z,96.90
2019-01-03T21:07:54.754Z,97.30
2019-01-03T21:12:56.062Z,97.30
2019-01-03T21:17:57.448Z,97.70
2019-01-03T21:22:58.797Z,97.70
2019-01-03T21:28:00.075Z,97.30
2019-01-03T21:33:01.306Z,97.20
2019-01-03T21:38:02.606Z,97.10
2019-01-03T21:43:03.991Z,97.80
2019-01-03T21:48:05.240Z,97.00
2019-01-03T21:53:06.591Z,97.30
2019-01-03T21:58:07.842Z,97.90
2019-01-03T22:03:09.094Z,97.80
2019-01-03T22:08:10.344Z,99.10
2019-01-03T22:13:11.635Z,99.70
2019-01-03T22:18:12.977Z,99.90
2019-01-03T22:23:14.521Z,99.90
2019-01-03T22:28:15.740Z,99.90
2019-01-03T22:33:17.074Z,99.90
2019-01-03T22:38:18.371Z,99.90
2019-01-03T22:43:19.666Z,99.90
2019-01-03T22:48:20.911Z,99.90
2019-01-03T22:53:22.164Z,99.90
2019-01-03T22:58:23.416Z,99.90
2019-01-03T23:03:25.112Z,99.90
2019-01-03T23:08:26.372Z,99.90
2019-01-03T23:13:27.648Z,99.90
2019-01-03T23:18:31.465Z,99.90
2019-01-03T23:23:32.029Z,99.90
2019-01-03T23:28:33.379Z,99.90
2019-01-03T23:33:34.658Z,99.90
2019-01-03T23:38:35.943Z,99.90
2019-01-03T23:43:37.196Z,99.90
2019-01-03T23:48:38.543Z,99.90
2019-01-03T23:53:39.836Z,99.90
2019-01-03T23:58:41.082Z,99.90
